createdAt,value
2023-01-23T00:00:59.087Z,10.57
2023-01-23T00:03:25.950Z,11.48
2023-01-23T00:06:07.069Z,10.60
2023-01-23T00:08:35.546Z,11.13
2023-01-23T00:11:12.678Z,11.13
2023-01-23T00:13:39.850Z,12.20
2023-01-23T00:16:17.062Z,12.07
2023-01-23T00:18:44.257Z,11.20
2023-01-23T00:21:14.332Z,11.48
2023-01-23T00:23:46.043Z,11.15
2023-01-23T00:26:15.838Z,10.48
2023-01-23T00:28:43.756Z,11.18
2023-01-23T00:31:16.456Z,11.90
2023-01-23T00:33:44.328Z,11.02
2023-01-23T00:36:12.634Z,11.90
2023-01-23T00:38:39.761Z,12.57
2023-01-23T00:41:06.852Z,11.80
2023-01-23T00:43:33.787Z,13.55
2023-01-23T00:46:00.666Z,12.60
2023-01-23T00:48:27.584Z,13.15
2023-01-23T00:50:54.336Z,12.48
2023-01-23T00:53:21.830Z,12.73
2023-01-23T00:55:48.572Z,12.85
2023-01-23T00:58:15.401Z,12.48
2023-01-23T01:00:42.457Z,13.23
2023-01-23T01:03:09.248Z,13.27
2023-01-23T01:05:36.320Z,12.57
2023-01-23T01:08:03.490Z,13.85
2023-01-23T01:10:32.705Z,13.90
2023-01-23T01:13:01.400Z,12.57
2023-01-23T01:15:29.354Z,14.43
2023-01-23T01:17:56.678Z,12.52
2023-01-23T01:20:25.993Z,13.68
2023-01-23T01:22:54.140Z,12.90
2023-01-23T01:25:21.464Z,13.75
2023-01-23T01:27:48.785Z,14.18
2023-01-23T01:30:17.431Z,14.20
2023-01-23T01:32:44.301Z,13.02
2023-01-23T01:35:12.060Z,13.65
2023-01-23T01:37:40.314Z,14.15
2023-01-23T01:40:10.365Z,14.35
2023-01-23T01:42:40.410Z,14.23
2023-01-23T01:45:27.571Z,13.57
2023-01-23T01:47:54.355Z,13.07
2023-01-23T01:50:21.417Z,13.30
2023-01-23T01:52:48.422Z,14.63
2023-01-23T01:55:15.410Z,13.23
2023-01-23T01:57:45.493Z,13.85
2023-01-23T02:00:19.365Z,15.55
2023-01-23T02:03:01.416Z,14.60
2023-01-23T02:05:35.548Z,13.55
2023-01-23T02:08:17.329Z,15.10
2023-01-23T02:10:44.577Z,14.00
2023-01-23T02:13:36.891Z,13.95
2023-01-23T02:16:05.070Z,13.27
2023-01-23T02:18:34.526Z,13.85
2023-01-23T02:21:06.053Z,15.20
2023-01-23T02:23:41.593Z,13.40
2023-01-23T02:26:13.406Z,14.82
2023-01-23T02:28:52.382Z,15.88
2023-01-23T02:31:20.082Z,14.52
2023-01-23T02:33:50.854Z,15.43
2023-01-23T02:36:20.088Z,13.68
2023-01-23T02:39:15.688Z,14.00
2023-01-23T02:41:48.068Z,14.65
2023-01-23T02:44:26.860Z,13.77
2023-01-23T02:47:00.500Z,15.13
2023-01-23T02:49:28.297Z,14.50
2023-01-23T02:51:56.520Z,14.18
2023-01-23T02:54:23.641Z,13.50
2023-01-23T02:56:51.147Z,13.82
2023-01-23T02:59:36.397Z,13.45
2023-01-23T03:02:04.524Z,14.18
2023-01-23T03:04:31.361Z,13.18
2023-01-23T03:06:59.259Z,12.95
2023-01-23T03:09:29.040Z,11.73
2023-01-23T03:11:55.844Z,11.40
2023-01-23T03:14:23.978Z,11.98
2023-01-23T03:16:52.684Z,12.10
2023-01-23T03:19:24.439Z,11.23
2023-01-23T03:21:52.222Z,11.82
2023-01-23T03:24:20.413Z,13.05
2023-01-23T03:26:48.548Z,12.02
2023-01-23T03:29:35.949Z,12.18
2023-01-23T03:32:03.121Z,10.52
2023-01-23T03:34:30.534Z,11.30
2023-01-23T03:36:58.285Z,10.27
2023-01-23T03:39:43.908Z,10.70
2023-01-23T03:42:11.307Z,11.10
2023-01-23T03:44:38.578Z,11.20
2023-01-23T03:47:05.553Z,10.98
2023-01-23T03:49:32.831Z,11.05
2023-01-23T03:52:00.091Z,10.93
2023-01-23T03:54:27.057Z,10.77
2023-01-23T03:56:54.194Z,11.70
2023-01-23T03:59:20.968Z,11.80
2023-01-23T04:01:50.560Z,11.48
2023-01-23T04:04:17.352Z,11.05
2023-01-23T04:06:44.169Z,12.63
2023-01-23T04:09:10.858Z,12.40
2023-01-23T04:11:37.709Z,12.27
2023-01-23T04:14:04.391Z,11.27
2023-01-23T04:16:31.199Z,12.15
2023-01-23T04:18:57.964Z,11.65
2023-01-23T04:21:25.512Z,12.25
2023-01-23T04:23:52.383Z,12.60
2023-01-23T04:26:19.146Z,12.52
2023-01-23T04:28:45.889Z,12.90
2023-01-23T04:31:12.658Z,11.60
2023-01-23T04:33:39.499Z,11.88
2023-01-23T04:36:06.947Z,11.90
2023-01-23T04:38:34.523Z,11.13
2023-01-23T04:41:01.324Z,14.63
2023-01-23T04:43:28.221Z,10.77
2023-01-23T04:45:57.028Z,12.73
2023-01-23T04:48:24.845Z,11.48
2023-01-23T04:50:51.721Z,11.60
2023-01-23T04:53:18.827Z,11.32
2023-01-23T04:55:49.073Z,11.52
2023-01-23T04:58:17.526Z,11.63
2023-01-23T05:00:44.267Z,12.45
2023-01-23T05:03:11.099Z,11.80
2023-01-23T05:05:37.943Z,11.18
2023-01-23T05:08:04.973Z,11.52
2023-01-23T05:10:31.777Z,10.70
2023-01-23T05:12:58.509Z,10.13
2023-01-23T05:15:25.181Z,10.88
2023-01-23T05:17:51.938Z,11.88
2023-01-23T05:20:20.550Z,11.45
2023-01-23T05:22:53.683Z,11.45
2023-01-23T05:25:23.331Z,11.00
2023-01-23T05:27:50.119Z,11.85
2023-01-23T05:30:17.781Z,10.73
2023-01-23T05:32:44.657Z,11.70
2023-01-23T05:35:11.671Z,11.65
2023-01-23T05:37:38.586Z,11.40
2023-01-23T05:40:08.774Z,10.80
2023-01-23T05:42:35.660Z,11.73
2023-01-23T05:45:02.596Z,12.18
2023-01-23T05:47:29.385Z,11.05
2023-01-23T05:49:56.062Z,11.75
2023-01-23T05:52:22.873Z,12.27
2023-01-23T05:54:50.426Z,12.25
2023-01-23T05:57:17.555Z,11.98
2023-01-23T05:59:44.573Z,11.05
2023-01-23T06:02:11.467Z,11.88
2023-01-23T06:04:38.243Z,11.48
2023-01-23T06:07:05.060Z,12.40
2023-01-23T06:09:31.921Z,12.20
2023-01-23T06:11:58.583Z,11.50
2023-01-23T06:14:25.325Z,11.75
2023-01-23T06:16:51.976Z,10.73
2023-01-23T06:19:18.687Z,10.15
2023-01-23T06:21:45.464Z,10.95
2023-01-23T06:24:12.187Z,11.68
2023-01-23T06:26:38.997Z,11.00
2023-01-23T06:29:05.780Z,11.32
2023-01-23T06:31:32.833Z,10.15
2023-01-23T06:34:00.417Z,11.48
2023-01-23T06:36:27.356Z,11.48
2023-01-23T06:38:54.196Z,11.35
2023-01-23T06:41:21.265Z,12.15
2023-01-23T06:43:48.062Z,12.07
2023-01-23T06:46:14.835Z,11.70
2023-01-23T06:48:41.686Z,12.38
2023-01-23T06:51:08.472Z,13.25
2023-01-23T06:53:35.785Z,11.38
2023-01-23T06:56:05.378Z,12.20
2023-01-23T06:58:33.393Z,11.60
2023-01-23T07:01:08.121Z,12.30
2023-01-23T07:03:34.880Z,12.73
2023-01-23T07:06:07.071Z,10.48
2023-01-23T07:08:34.558Z,10.05
2023-01-23T07:11:02.114Z,9.98
2023-01-23T07:13:29.185Z,10.60
2023-01-23T07:15:56.260Z,8.68
2023-01-23T07:18:23.606Z,10.73
2023-01-23T07:20:50.562Z,10.20
2023-01-23T07:23:17.268Z,9.40
2023-01-23T07:25:44.494Z,8.07
2023-01-23T07:28:11.459Z,8.43
2023-01-23T07:30:38.344Z,8.43
2023-01-23T07:33:05.822Z,9.02
2023-01-23T07:35:33.049Z,9.13
2023-01-23T07:37:59.806Z,9.40
2023-01-23T07:40:26.560Z,8.50
2023-01-23T07:42:53.280Z,8.90
2023-01-23T07:45:20.038Z,10.20
2023-01-23T07:47:46.750Z,10.43
2023-01-23T07:50:14.044Z,9.38
2023-01-23T07:52:40.800Z,12.48
2023-01-23T07:55:07.843Z,10.50
2023-01-23T07:57:34.610Z,9.25
2023-01-23T08:00:01.304Z,9.93
2023-01-23T08:02:30.149Z,10.07
2023-01-23T08:04:57.022Z,10.02
2023-01-23T08:07:24.003Z,10.68
2023-01-23T08:09:50.707Z,10.68
2023-01-23T08:12:17.685Z,10.55
2023-01-23T08:14:44.394Z,10.13
2023-01-23T08:17:11.135Z,10.35
2023-01-23T08:19:37.865Z,12.00
2023-01-23T08:22:05.127Z,10.25
2023-01-23T08:24:32.373Z,10.95
2023-01-23T08:26:59.274Z,10.60
2023-01-23T08:29:26.122Z,11.60
2023-01-23T08:31:54.984Z,11.57
2023-01-23T08:34:24.033Z,10.85
2023-01-23T08:36:53.983Z,11.55
2023-01-23T08:39:20.846Z,11.50
2023-01-23T08:41:47.554Z,12.10
2023-01-23T08:44:14.245Z,11.35
2023-01-23T08:46:40.943Z,12.88
2023-01-23T08:49:08.547Z,12.10
2023-01-23T08:51:36.707Z,11.45
2023-01-23T08:54:03.756Z,12.30
2023-01-23T08:56:30.562Z,11.68
2023-01-23T08:58:57.561Z,11.85
2023-01-23T09:01:27.121Z,11.35
2023-01-23T09:03:53.851Z,10.98
2023-01-23T09:06:23.137Z,10.40
2023-01-23T09:08:50.295Z,11.90
2023-01-23T09:11:18.482Z,11.02
2023-01-23T09:13:48.715Z,10.88
2023-01-23T09:16:16.227Z,11.02
2023-01-23T09:18:43.273Z,11.05
2023-01-23T09:21:12.827Z,11.95
2023-01-23T09:23:40.022Z,11.43
2023-01-23T09:26:09.170Z,11.82
2023-01-23T09:28:37.065Z,10.88
2023-01-23T09:31:09.625Z,13.02
2023-01-23T09:33:38.603Z,10.98
2023-01-23T09:36:06.063Z,12.35
2023-01-23T09:38:34.142Z,11.75
2023-01-23T09:41:28.104Z,11.45
2023-01-23T09:44:12.648Z,11.77
2023-01-23T09:46:47.976Z,12.60
2023-01-23T09:49:25.396Z,12.18
2023-01-23T09:52:03.454Z,12.63
2023-01-23T09:54:33.065Z,11.70
2023-01-23T09:57:04.396Z,10.95
2023-01-23T09:59:53.674Z,11.57
2023-01-23T10:02:27.122Z,11.50
2023-01-23T10:04:55.126Z,11.15
2023-01-23T10:07:45.592Z,11.50
2023-01-23T10:10:30.354Z,12.52
2023-01-23T10:13:16.429Z,12.50
2023-01-23T10:15:55.507Z,13.10
2023-01-23T10:18:28.501Z,11.60
2023-01-23T10:21:36.598Z,11.45
2023-01-23T10:24:12.303Z,12.65
2023-01-23T10:26:43.702Z,12.07
2023-01-23T10:29:21.492Z,11.93
2023-01-23T10:31:57.262Z,11.40
2023-01-23T10:34:47.412Z,11.55
2023-01-23T10:37:37.376Z,11.45
2023-01-23T10:40:14.190Z,10.77
2023-01-23T10:42:41.370Z,11.27
2023-01-23T10:45:18.122Z,13.30
2023-01-23T10:47:54.758Z,11.95
2023-01-23T10:50:40.623Z,11.15
2023-01-23T10:53:16.762Z,11.05
2023-01-23T10:55:45.675Z,10.73
2023-01-23T10:58:25.179Z,11.15
2023-01-23T11:00:52.254Z,12.50
2023-01-23T11:03:24.699Z,13.23
2023-01-23T11:06:17.038Z,13.07
2023-01-23T11:08:55.153Z,12.32
2023-01-23T11:11:27.896Z,13.20
2023-01-23T11:14:13.938Z,11.57
2023-01-23T11:16:40.709Z,11.75
2023-01-23T11:19:07.345Z,12.43
2023-01-23T11:21:36.388Z,12.80
2023-01-23T11:24:10.741Z,12.02
2023-01-23T11:26:38.730Z,12.05
2023-01-23T11:29:21.547Z,11.23
2023-01-23T11:31:53.350Z,12.68
2023-01-23T11:34:25.931Z,12.13
2023-01-23T11:37:06.884Z,12.20
2023-01-23T11:39:36.509Z,11.88
2023-01-23T11:42:03.938Z,11.90
2023-01-23T11:44:45.117Z,11.15
2023-01-23T11:47:20.075Z,11.30
2023-01-23T11:50:05.253Z,10.50
2023-01-23T11:52:36.475Z,10.40
2023-01-23T11:55:25.755Z,11.02
2023-01-23T11:58:04.113Z,10.43
2023-01-23T12:00:58.981Z,10.23
2023-01-23T12:03:50.641Z,10.25
2023-01-23T12:06:41.937Z,10.95
2023-01-23T12:09:14.633Z,11.00
2023-01-23T12:12:07.316Z,9.20
2023-01-23T12:14:46.581Z,9.38
2023-01-23T12:17:33.755Z,10.25
2023-01-23T12:20:15.521Z,10.52
2023-01-23T12:23:00.654Z,10.88
2023-01-23T12:25:38.205Z,10.35
2023-01-23T12:28:23.617Z,9.65
2023-01-23T12:31:22.608Z,10.32
2023-01-23T12:34:04.103Z,9.25
2023-01-23T12:37:08.695Z,9.32
2023-01-23T12:39:50.941Z,9.13
2023-01-23T12:42:23.823Z,10.07
2023-01-23T12:45:19.330Z,9.98
2023-01-23T12:47:49.198Z,10.65
2023-01-23T12:50:24.089Z,14.20
2023-01-23T12:52:57.973Z,15.00
2023-01-23T12:55:33.203Z,9.50
2023-01-23T12:58:08.908Z,9.90
2023-01-23T13:00:58.453Z,10.95
2023-01-23T13:03:49.641Z,8.15
2023-01-23T13:06:34.782Z,8.23
2023-01-23T13:09:28.850Z,9.13
2023-01-23T13:12:19.605Z,8.85
2023-01-23T13:15:06.927Z,9.50
2023-01-23T13:17:33.537Z,8.85
2023-01-23T13:20:40.711Z,9.10
2023-01-23T13:23:30.639Z,8.70
2023-01-23T13:26:17.148Z,10.50
2023-01-23T13:28:54.559Z,8.90
2023-01-23T13:31:34.224Z,9.30
2023-01-23T13:34:15.064Z,9.15
2023-01-23T13:36:53.140Z,9.88
2023-01-23T13:39:26.089Z,10.20
2023-01-23T13:42:14.415Z,9.68
2023-01-23T13:45:19.246Z,9.15
2023-01-23T14:22:46.462Z,9.98
2023-01-23T14:25:22.357Z,8.02
2023-01-23T14:27:53.971Z,9.27
2023-01-23T14:30:27.148Z,10.43
2023-01-23T14:32:54.623Z,10.27
2023-01-23T14:35:28.585Z,10.63
2023-01-23T14:37:59.192Z,9.38
2023-01-23T14:40:29.538Z,9.07
2023-01-23T14:43:10.068Z,9.60
2023-01-23T14:45:37.724Z,9.85
2023-01-23T14:48:14.051Z,10.32
2023-01-23T14:50:41.327Z,9.30
2023-01-23T14:53:14.985Z,9.40
2023-01-23T14:55:45.322Z,8.98
2023-01-23T14:58:31.670Z,9.18
2023-01-23T15:00:59.136Z,8.90
2023-01-23T15:03:43.789Z,8.63
2023-01-23T15:06:19.265Z,8.85
2023-01-23T15:08:46.852Z,9.23
2023-01-23T15:11:14.198Z,11.23
2023-01-23T15:13:45.628Z,12.70
2023-01-23T15:16:19.335Z,12.50
2023-01-23T15:19:03.204Z,9.48
2023-01-23T15:21:33.616Z,8.98
2023-01-23T15:24:16.916Z,8.45
2023-01-23T15:27:05.508Z,8.70
2023-01-23T15:29:33.677Z,8.68
2023-01-23T15:32:01.364Z,9.18
2023-01-23T15:34:34.206Z,8.43
2023-01-23T15:37:06.658Z,9.70
2023-01-23T15:39:56.427Z,7.40
2023-01-23T15:42:23.127Z,9.27
2023-01-23T15:44:50.125Z,9.55
2023-01-23T15:47:16.899Z,10.60
2023-01-23T15:49:43.695Z,9.05
2023-01-23T15:52:26.017Z,8.75
2023-01-23T15:54:59.828Z,9.52
2023-01-23T15:57:27.020Z,10.57
2023-01-23T15:59:53.722Z,8.70
2023-01-23T16:02:32.991Z,9.75
2023-01-23T16:05:01.821Z,9.85
2023-01-23T16:07:34.917Z,10.45
2023-01-23T16:10:05.088Z,8.88
2023-01-23T16:12:32.826Z,9.65
2023-01-23T16:14:59.660Z,10.13
2023-01-23T16:17:26.583Z,10.70
2023-01-23T16:19:54.364Z,9.60
2023-01-23T16:22:27.209Z,9.95
2023-01-23T16:24:54.093Z,9.55
2023-01-23T16:27:27.188Z,10.60
2023-01-23T16:29:55.092Z,10.15
2023-01-23T16:32:22.577Z,10.00
2023-01-23T16:34:49.761Z,11.27
2023-01-23T16:37:18.737Z,10.52
2023-01-23T16:39:47.172Z,11.50
2023-01-23T16:42:20.476Z,12.25
2023-01-23T16:44:47.351Z,10.45
2023-01-23T16:47:14.145Z,12.00
2023-01-23T16:49:52.090Z,12.05
2023-01-23T16:52:20.178Z,11.27
2023-01-23T16:54:47.000Z,10.73
2023-01-23T16:57:21.167Z,11.10
2023-01-23T16:59:49.111Z,11.98
2023-01-23T17:02:20.683Z,11.05
2023-01-23T17:04:47.467Z,12.90
2023-01-23T17:07:17.136Z,12.60
2023-01-23T17:09:44.769Z,11.25
2023-01-23T17:12:21.000Z,12.05
2023-01-23T17:14:49.213Z,11.98
2023-01-23T17:17:27.015Z,11.00
2023-01-23T17:19:55.120Z,10.38
2023-01-23T17:22:25.917Z,11.15
2023-01-23T17:24:52.711Z,10.98
2023-01-23T17:27:19.519Z,12.18
2023-01-23T17:29:46.255Z,11.73
2023-01-23T17:32:40.556Z,11.63
2023-01-23T17:35:12.790Z,10.57
2023-01-23T17:37:39.687Z,10.40
2023-01-23T17:40:07.794Z,11.00
2023-01-23T17:42:34.548Z,11.60
2023-01-23T17:45:01.299Z,13.10
2023-01-23T17:47:28.595Z,11.40
2023-01-23T17:49:56.461Z,11.40
2023-01-23T17:52:24.930Z,11.65
2023-01-23T17:54:51.813Z,13.15
2023-01-23T17:57:18.633Z,10.93
2023-01-23T17:59:45.725Z,11.15
2023-01-23T18:02:27.837Z,11.48
2023-01-23T18:04:55.252Z,12.20
2023-01-23T18:07:22.071Z,12.15
2023-01-23T18:09:48.805Z,12.05
2023-01-23T18:12:27.942Z,10.75
2023-01-23T18:15:19.151Z,10.55
2023-01-23T18:17:52.432Z,10.57
2023-01-23T18:20:23.649Z,11.65
2023-01-23T18:22:50.867Z,11.50
2023-01-23T18:25:19.513Z,11.45
2023-01-23T18:27:50.279Z,11.85
2023-01-23T18:30:37.497Z,12.45
2023-01-23T18:33:21.236Z,12.43
2023-01-23T18:36:20.038Z,12.32
2023-01-23T18:39:23.535Z,12.25
2023-01-23T18:42:07.198Z,11.48
2023-01-23T18:44:34.756Z,11.60
2023-01-23T18:47:05.625Z,13.57
2023-01-23T18:49:33.554Z,14.15
2023-01-23T18:52:12.483Z,10.70
2023-01-23T18:54:57.794Z,12.77
2023-01-23T18:57:42.971Z,12.15
2023-01-23T19:00:24.688Z,13.38
2023-01-23T19:02:55.897Z,13.38
2023-01-23T19:05:28.722Z,12.35
2023-01-23T19:07:55.801Z,13.18
2023-01-23T19:10:29.237Z,13.23
2023-01-23T19:13:21.672Z,13.60
2023-01-23T19:16:11.906Z,14.25
2023-01-23T19:18:47.793Z,13.40
2023-01-23T19:21:25.019Z,14.10
2023-01-23T19:24:04.207Z,14.43
2023-01-23T19:26:35.352Z,12.93
2023-01-23T19:29:19.946Z,14.38
2023-01-23T19:32:02.947Z,14.52
2023-01-23T19:34:31.333Z,14.20
2023-01-23T19:36:58.090Z,13.13
2023-01-23T19:39:24.845Z,14.48
2023-01-23T19:41:53.345Z,14.30
2023-01-23T19:44:24.783Z,13.52
2023-01-23T19:46:52.402Z,15.50
2023-01-23T19:49:19.355Z,14.30
2023-01-23T19:51:47.501Z,15.50
2023-01-23T19:54:15.165Z,15.70
2023-01-23T19:56:42.456Z,15.23
2023-01-23T19:59:09.946Z,15.00
2023-01-23T20:01:45.660Z,13.52
2023-01-23T20:04:23.608Z,15.63
2023-01-23T20:06:53.969Z,15.75
2023-01-23T20:09:21.509Z,14.18
2023-01-23T20:11:48.442Z,15.57
2023-01-23T20:14:15.271Z,17.17
2023-01-23T20:16:43.424Z,14.50
2023-01-23T20:19:15.031Z,15.65
2023-01-23T20:21:41.993Z,15.02
2023-01-23T20:24:08.837Z,15.80
2023-01-23T20:26:35.996Z,14.18
2023-01-23T20:29:04.000Z,15.43
2023-01-23T20:31:31.144Z,15.40
2023-01-23T20:33:57.898Z,15.95
2023-01-23T20:36:24.930Z,14.20
2023-01-23T20:38:51.629Z,15.93
2023-01-23T20:41:20.131Z,14.60
2023-01-23T20:43:47.925Z,16.00
2023-01-23T20:46:16.224Z,15.02
2023-01-23T20:48:44.959Z,15.93
2023-01-23T20:51:14.223Z,16.08
2023-01-23T20:53:41.162Z,15.52
2023-01-23T20:56:13.471Z,14.80
2023-01-23T20:59:03.022Z,15.43
2023-01-23T21:01:52.431Z,15.60
2023-01-23T21:04:19.719Z,14.70
2023-01-23T21:06:46.413Z,15.40
2023-01-23T21:09:13.259Z,16.23
2023-01-23T21:11:40.350Z,15.70
2023-01-23T21:14:07.163Z,19.45
2023-01-23T21:16:33.975Z,16.45
2023-01-23T21:19:01.452Z,17.77
2023-01-23T21:21:28.190Z,17.90
2023-01-23T21:23:54.971Z,16.25
2023-01-23T21:26:25.442Z,16.25
2023-01-23T21:28:54.559Z,17.00
2023-01-23T21:31:26.948Z,16.73
2023-01-23T21:33:54.420Z,17.05
2023-01-23T21:36:26.670Z,15.85
2023-01-23T21:38:53.947Z,16.20
2023-01-23T21:41:21.540Z,16.38
2023-01-23T21:43:48.590Z,16.50
2023-01-23T21:46:15.568Z,18.00
2023-01-23T21:48:43.061Z,16.40
2023-01-23T21:51:18.745Z,16.45
2023-01-23T21:53:47.596Z,16.15
2023-01-23T21:56:16.295Z,17.10
2023-01-23T21:58:43.331Z,16.67
2023-01-23T22:01:33.876Z,16.85
2023-01-23T22:04:07.580Z,17.23
2023-01-23T22:06:35.835Z,16.80
2023-01-23T22:09:05.043Z,16.45
2023-01-23T22:11:32.104Z,17.70
2023-01-23T22:13:59.181Z,17.85
2023-01-23T22:16:45.630Z,16.98
2023-01-23T22:19:15.790Z,16.50
2023-01-23T22:21:43.840Z,17.58
2023-01-23T22:24:10.751Z,18.90
2023-01-23T22:26:37.577Z,15.95
2023-01-23T22:29:04.310Z,18.33
2023-01-23T22:31:31.262Z,19.08
2023-01-23T22:34:02.642Z,18.35
2023-01-23T22:36:29.631Z,18.48
2023-01-23T22:38:56.494Z,18.20
2023-01-23T22:41:23.968Z,17.85
2023-01-23T22:43:54.717Z,18.60
2023-01-23T22:46:22.664Z,19.35
2023-01-23T22:48:49.642Z,18.83
2023-01-23T22:51:25.414Z,17.60
2023-01-23T22:53:53.685Z,17.92
2023-01-23T22:56:21.128Z,16.20
2023-01-23T22:58:52.017Z,18.42
2023-01-23T23:01:19.567Z,17.42
2023-01-23T23:03:46.448Z,16.70
2023-01-23T23:06:14.912Z,16.30
2023-01-23T23:08:42.162Z,16.60
2023-01-23T23:11:14.667Z,15.50
2023-01-23T23:13:41.608Z,17.10
2023-01-23T23:16:14.297Z,16.20
2023-01-23T23:18:41.877Z,16.20
2023-01-23T23:21:12.147Z,15.80
2023-01-23T23:23:39.215Z,15.52
2023-01-23T23:26:09.435Z,15.32
2023-01-23T23:28:36.586Z,14.95
2023-01-23T23:31:03.531Z,15.95
2023-01-23T23:33:30.721Z,16.45
2023-01-23T23:35:57.453Z,15.05
2023-01-23T23:38:24.251Z,15.13
2023-01-23T23:41:02.246Z,15.48
2023-01-23T23:43:29.599Z,14.73
2023-01-23T23:45:59.028Z,16.35
2023-01-23T23:48:26.495Z,15.32
2023-01-23T23:50:53.509Z,15.57
2023-01-23T23:53:20.546Z,16.92
2023-01-23T23:55:48.204Z,16.50
2023-01-23T23:58:15.331Z,14.43
